sensor_id;sensor_type;location;lat;lon;timestamp;temperature;humidity
4509;DHT22;2267;48.816;9.230;2023-04-23T00:02:05;17.50;93.10
4509;DHT22;2267;48.816;9.230;2023-04-23T00:04:35;17.50;93.20
4509;DHT22;2267;48.816;9.230;2023-04-23T00:07:04;17.40;93.00
4509;DHT22;2267;48.816;9.230;2023-04-23T00:09:32;17.40;93.10
4509;DHT22;2267;48.816;9.230;2023-04-23T00:12:00;17.30;92.80
4509;DHT22;2267;48.816;9.230;2023-04-23T00:14:27;17.30;92.90
4509;DHT22;2267;48.816;9.230;2023-04-23T00:16:54;17.30;93.00
4509;DHT22;2267;48.816;9.230;2023-04-23T00:19:21;17.30;93.00
4509;DHT22;2267;48.816;9.230;2023-04-23T00:21:48;17.30;93.10
4509;DHT22;2267;48.816;9.230;2023-04-23T00:24:15;17.20;93.20
4509;DHT22;2267;48.816;9.230;2023-04-23T00:26:41;17.10;93.30
4509;DHT22;2267;48.816;9.230;2023-04-23T00:29:08;17.10;93.50
4509;DHT22;2267;48.816;9.230;2023-04-23T00:31:35;17.10;93.70
4509;DHT22;2267;48.816;9.230;2023-04-23T00:34:02;17.00;93.70
4509;DHT22;2267;48.816;9.230;2023-04-23T00:36:29;17.00;93.90
4509;DHT22;2267;48.816;9.230;2023-04-23T00:38:56;17.00;94.10
4509;DHT22;2267;48.816;9.230;2023-04-23T00:41:23;17.00;94.50
4509;DHT22;2267;48.816;9.230;2023-04-23T00:43:51;17.00;94.60
4509;DHT22;2267;48.816;9.230;2023-04-23T00:46:19;17.00;94.60
4509;DHT22;2267;48.816;9.230;2023-04-23T00:48:46;17.00;94.90
4509;DHT22;2267;48.816;9.230;2023-04-23T00:51:15;17.00;95.10
4509;DHT22;2267;48.816;9.230;2023-04-23T00:53:43;17.00;95.00
4509;DHT22;2267;48.816;9.230;2023-04-23T00:56:09;17.00;95.10
4509;DHT22;2267;48.816;9.230;2023-04-23T00:58:37;17.00;95.50
4509;DHT22;2267;48.816;9.230;2023-04-23T01:01:04;17.00;95.70
4509;DHT22;2267;48.816;9.230;2023-04-23T01:03:33;17.00;96.00
4509;DHT22;2267;48.816;9.230;2023-04-23T01:06:02;16.90;96.10
4509;DHT22;2267;48.816;9.230;2023-04-23T01:08:30;16.90;96.30
4509;DHT22;2267;48.816;9.230;2023-04-23T01:10:57;16.90;96.50
4509;DHT22;2267;48.816;9.230;2023-04-23T01:13:25;16.90;96.60
4509;DHT22;2267;48.816;9.230;2023-04-23T01:15:56;16.90;96.90
4509;DHT22;2267;48.816;9.230;2023-04-23T01:18:23;16.90;96.90
4509;DHT22;2267;48.816;9.230;2023-04-23T01:20:50;16.90;97.10
4509;DHT22;2267;48.816;9.230;2023-04-23T01:23:17;16.90;97.20
4509;DHT22;2267;48.816;9.230;2023-04-23T01:25:44;16.90;97.10
4509;DHT22;2267;48.816;9.230;2023-04-23T01:28:11;16.80;97.20
4509;DHT22;2267;48.816;9.230;2023-04-23T01:30:41;16.80;97.20
4509;DHT22;2267;48.816;9.230;2023-04-23T01:33:09;16.90;97.40
4509;DHT22;2267;48.816;9.230;2023-04-23T01:35:36;16.90;97.40
4509;DHT22;2267;48.816;9.230;2023-04-23T01:38:07;16.90;97.50
4509;DHT22;2267;48.816;9.230;2023-04-23T01:40:34;16.80;97.20
4509;DHT22;2267;48.816;9.230;2023-04-23T01:43:03;16.80;97.40
4509;DHT22;2267;48.816;9.230;2023-04-23T01:45:30;16.80;97.50
4509;DHT22;2267;48.816;9.230;2023-04-23T01:47:58;16.80;97.40
4509;DHT22;2267;48.816;9.230;2023-04-23T01:50:26;16.80;97.50
4509;DHT22;2267;48.816;9.230;2023-04-23T01:52:54;16.80;97.50
4509;DHT22;2267;48.816;9.230;2023-04-23T01:55:24;16.80;97.50
4509;DHT22;2267;48.816;9.230;2023-04-23T01:57:51;16.80;97.60
4509;DHT22;2267;48.816;9.230;2023-04-23T02:00:18;16.70;97.60
4509;DHT22;2267;48.816;9.230;2023-04-23T02:02:46;16.80;97.80
4509;DHT22;2267;48.816;9.230;2023-04-23T02:05:16;16.80;97.90
4509;DHT22;2267;48.816;9.230;2023-04-23T02:07:48;16.80;98.00
4509;DHT22;2267;48.816;9.230;2023-04-23T02:10:16;16.80;98.20
4509;DHT22;2267;48.816;9.230;2023-04-23T02:12:44;16.80;98.40
4509;DHT22;2267;48.816;9.230;2023-04-23T02:15:11;16.80;98.60
4509;DHT22;2267;48.816;9.230;2023-04-23T02:17:38;16.80;98.70
4509;DHT22;2267;48.816;9.230;2023-04-23T02:20:09;16.80;99.00
4509;DHT22;2267;48.816;9.230;2023-04-23T02:22:40;16.80;99.10
4509;DHT22;2267;48.816;9.230;2023-04-23T02:25:07;16.80;99.40
4509;DHT22;2267;48.816;9.230;2023-04-23T02:27:35;16.80;99.60
4509;DHT22;2267;48.816;9.230;2023-04-23T02:30:02;16.80;99.60
4509;DHT22;2267;48.816;9.230;2023-04-23T02:32:29;16.70;99.50
4509;DHT22;2267;48.816;9.230;2023-04-23T02:34:56;16.70;99.90
4509;DHT22;2267;48.816;9.230;2023-04-23T02:37:25;16.70;99.90
4509;DHT22;2267;48.816;9.230;2023-04-23T02:39:52;16.70;99.90
4509;DHT22;2267;48.816;9.230;2023-04-23T02:42:19;16.70;99.90
4509;DHT22;2267;48.816;9.230;2023-04-23T02:44:46;16.60;99.90
4509;DHT22;2267;48.816;9.230;2023-04-23T02:47:13;16.60;99.90
4509;DHT22;2267;48.816;9.230;2023-04-23T02:49:40;16.60;99.90
4509;DHT22;2267;48.816;9.230;2023-04-23T02:52:07;16.60;99.90
4509;DHT22;2267;48.816;9.230;2023-04-23T02:54:34;16.60;99.90
4509;DHT22;2267;48.816;9.230;2023-04-23T02:57:03;16.50;99.90
4509;DHT22;2267;48.816;9.230;2023-04-23T02:59:30;16.50;99.90
4509;DHT22;2267;48.816;9.230;2023-04-23T03:01:57;16.50;99.90
4509;DHT22;2267;48.816;9.230;2023-04-23T03:04:23;16.50;99.90
4509;DHT22;2267;48.816;9.230;2023-04-23T03:06:50;16.40;99.90
4509;DHT22;2267;48.816;9.230;2023-04-23T03:09:17;16.40;99.90
4509;DHT22;2267;48.816;9.230;2023-04-23T03:11:44;16.40;99.90
4509;DHT22;2267;48.816;9.230;2023-04-23T03:14:11;16.40;99.90
4509;DHT22;2267;48.816;9.230;2023-04-23T03:16:37;16.30;99.90
4509;DHT22;2267;48.816;9.230;2023-04-23T03:19:04;16.30;99.90
4509;DHT22;2267;48.816;9.230;2023-04-23T03:21:31;16.30;99.90
4509;DHT22;2267;48.816;9.230;2023-04-23T03:23:58;16.30;99.90
4509;DHT22;2267;48.816;9.230;2023-04-23T03:26:24;16.30;99.90
4509;DHT22;2267;48.816;9.230;2023-04-23T03:28:52;16.30;99.90
4509;DHT22;2267;48.816;9.230;2023-04-23T03:31:19;16.20;99.90
4509;DHT22;2267;48.816;9.230;2023-04-23T03:33:46;16.20;99.90
4509;DHT22;2267;48.816;9.230;2023-04-23T03:36:13;16.20;99.90
4509;DHT22;2267;48.816;9.230;2023-04-23T03:38:41;16.20;99.90
4509;DHT22;2267;48.816;9.230;2023-04-23T03:41:07;16.20;99.90
4509;DHT22;2267;48.816;9.230;2023-04-23T03:43:34;16.20;99.90
4509;DHT22;2267;48.816;9.230;2023-04-23T03:46:01;16.10;99.90
4509;DHT22;2267;48.816;9.230;2023-04-23T03:48:28;16.10;99.90
4509;DHT22;2267;48.816;9.230;2023-04-23T03:50:54;16.10;99.90
4509;DHT22;2267;48.816;9.230;2023-04-23T03:53:21;16.10;99.90
4509;DHT22;2267;48.816;9.230;2023-04-23T03:55:48;16.10;99.90
4509;DHT22;2267;48.816;9.230;2023-04-23T03:58:15;16.10;99.90
4509;DHT22;2267;48.816;9.230;2023-04-23T04:00:42;16.10;99.90
4509;DHT22;2267;48.816;9.230;2023-04-23T04:03:09;16.00;99.90
4509;DHT22;2267;48.816;9.230;2023-04-23T04:05:36;16.00;99.90
4509;DHT22;2267;48.816;9.230;2023-04-23T04:08:03;16.00;99.90
4509;DHT22;2267;48.816;9.230;2023-04-23T04:10:30;16.00;99.90
4509;DHT22;2267;48.816;9.230;2023-04-23T04:12:57;16.00;99.90
4509;DHT22;2267;48.816;9.230;2023-04-23T04:15:24;16.00;99.90
4509;DHT22;2267;48.816;9.230;2023-04-23T04:17:51;16.00;99.90
4509;DHT22;2267;48.816;9.230;2023-04-23T04:20:18;16.00;99.90
4509;DHT22;2267;48.816;9.230;2023-04-23T04:22:44;15.90;99.90
4509;DHT22;2267;48.816;9.230;2023-04-23T04:25:12;15.90;99.90
4509;DHT22;2267;48.816;9.230;2023-04-23T04:27:39;15.90;99.90
4509;DHT22;2267;48.816;9.230;2023-04-23T04:30:08;15.90;99.90
4509;DHT22;2267;48.816;9.230;2023-04-23T04:32:35;15.90;99.90
4509;DHT22;2267;48.816;9.230;2023-04-23T04:35:05;15.90;99.90
4509;DHT22;2267;48.816;9.230;2023-04-23T04:37:32;15.90;99.90
4509;DHT22;2267;48.816;9.230;2023-04-23T04:39:59;15.90;99.90
4509;DHT22;2267;48.816;9.230;2023-04-23T04:42:26;15.80;99.90
4509;DHT22;2267;48.816;9.230;2023-04-23T04:44:53;15.80;99.90
4509;DHT22;2267;48.816;9.230;2023-04-23T04:47:20;15.80;99.90
4509;DHT22;2267;48.816;9.230;2023-04-23T04:49:47;15.80;99.90
4509;DHT22;2267;48.816;9.230;2023-04-23T04:52:14;15.80;99.90
4509;DHT22;2267;48.816;9.230;2023-04-23T04:54:41;15.80;99.90
4509;DHT22;2267;48.816;9.230;2023-04-23T04:57:08;15.80;99.90
4509;DHT22;2267;48.816;9.230;2023-04-23T04:59:35;15.80;99.90
4509;DHT22;2267;48.816;9.230;2023-04-23T05:02:02;15.70;99.90
4509;DHT22;2267;48.816;9.230;2023-04-23T05:04:29;15.70;99.90
4509;DHT22;2267;48.816;9.230;2023-04-23T05:06:56;15.70;99.90
4509;DHT22;2267;48.816;9.230;2023-04-23T05:09:23;15.70;99.90
4509;DHT22;2267;48.816;9.230;2023-04-23T05:11:50;15.70;99.90
4509;DHT22;2267;48.816;9.230;2023-04-23T05:14:17;15.70;99.90
4509;DHT22;2267;48.816;9.230;2023-04-23T05:16:44;15.70;99.90
4509;DHT22;2267;48.816;9.230;2023-04-23T05:19:11;15.70;99.90
4509;DHT22;2267;48.816;9.230;2023-04-23T05:21:38;15.70;99.90
4509;DHT22;2267;48.816;9.230;2023-04-23T05:24:05;15.70;99.90
4509;DHT22;2267;48.816;9.230;2023-04-23T05:26:31;15.70;99.90
4509;DHT22;2267;48.816;9.230;2023-04-23T05:28:58;15.70;99.90
4509;DHT22;2267;48.816;9.230;2023-04-23T05:31:25;15.70;99.90
4509;DHT22;2267;48.816;9.230;2023-04-23T05:33:55;15.70;99.90
4509;DHT22;2267;48.816;9.230;2023-04-23T05:36:21;15.70;99.90
4509;DHT22;2267;48.816;9.230;2023-04-23T05:38:48;15.70;99.90
4509;DHT22;2267;48.816;9.230;2023-04-23T05:41:15;15.70;99.90
4509;DHT22;2267;48.816;9.230;2023-04-23T05:43:42;15.70;99.90
4509;DHT22;2267;48.816;9.230;2023-04-23T05:46:08;15.70;99.90
4509;DHT22;2267;48.816;9.230;2023-04-23T05:48:35;15.70;99.90
4509;DHT22;2267;48.816;9.230;2023-04-23T05:51:02;15.70;99.90
4509;DHT22;2267;48.816;9.230;2023-04-23T05:53:29;15.70;99.90
4509;DHT22;2267;48.816;9.230;2023-04-23T05:55:56;15.70;99.90
4509;DHT22;2267;48.816;9.230;2023-04-23T05:58:22;15.70;99.90
4509;DHT22;2267;48.816;9.230;2023-04-23T06:00:49;15.70;99.90
4509;DHT22;2267;48.816;9.230;2023-04-23T06:03:18;15.80;99.90
4509;DHT22;2267;48.816;9.230;2023-04-23T06:05:45;15.80;99.90
4509;DHT22;2267;48.816;9.230;2023-04-23T06:08:12;15.80;99.90
4509;DHT22;2267;48.816;9.230;2023-04-23T06:10:39;15.80;99.90
4509;DHT22;2267;48.816;9.230;2023-04-23T06:13:06;15.80;99.90
4509;DHT22;2267;48.816;9.230;2023-04-23T06:15:33;15.90;99.90
4509;DHT22;2267;48.816;9.230;2023-04-23T06:18:00;15.90;99.90
4509;DHT22;2267;48.816;9.230;2023-04-23T06:20:26;16.00;99.90
4509;DHT22;2267;48.816;9.230;2023-04-23T06:22:53;16.00;99.90
4509;DHT22;2267;48.816;9.230;2023-04-23T06:25:20;16.00;99.90
4509;DHT22;2267;48.816;9.230;2023-04-23T06:27:47;16.00;99.90
4509;DHT22;2267;48.816;9.230;2023-04-23T06:30:13;15.90;99.90
4509;DHT22;2267;48.816;9.230;2023-04-23T06:32:40;15.90;99.90
4509;DHT22;2267;48.816;9.230;2023-04-23T06:35:07;16.00;99.90
4509;DHT22;2267;48.816;9.230;2023-04-23T06:37:34;16.00;99.90
4509;DHT22;2267;48.816;9.230;2023-04-23T06:40:01;16.00;99.90
4509;DHT22;2267;48.816;9.230;2023-04-23T06:42:28;16.00;99.90
4509;DHT22;2267;48.816;9.230;2023-04-23T06:44:56;15.90;99.90
4509;DHT22;2267;48.816;9.230;2023-04-23T06:47:24;16.00;99.90
4509;DHT22;2267;48.816;9.230;2023-04-23T06:49:51;16.00;99.90
4509;DHT22;2267;48.816;9.230;2023-04-23T06:52:18;16.00;99.90
4509;DHT22;2267;48.816;9.230;2023-04-23T06:54:45;16.00;99.90
4509;DHT22;2267;48.816;9.230;2023-04-23T06:57:11;16.00;99.90
4509;DHT22;2267;48.816;9.230;2023-04-23T06:59:38;16.10;99.90
4509;DHT22;2267;48.816;9.230;2023-04-23T07:02:05;16.10;99.90
4509;DHT22;2267;48.816;9.230;2023-04-23T07:04:32;16.10;99.90
4509;DHT22;2267;48.816;9.230;2023-04-23T07:06:59;16.10;99.90
4509;DHT22;2267;48.816;9.230;2023-04-23T07:09:27;16.20;99.90
4509;DHT22;2267;48.816;9.230;2023-04-23T07:11:54;16.20;99.90
4509;DHT22;2267;48.816;9.230;2023-04-23T07:14:21;16.20;99.90
4509;DHT22;2267;48.816;9.230;2023-04-23T07:16:48;16.20;99.90
4509;DHT22;2267;48.816;9.230;2023-04-23T07:19:14;16.20;99.90
4509;DHT22;2267;48.816;9.230;2023-04-23T07:21:41;16.30;99.90
4509;DHT22;2267;48.816;9.230;2023-04-23T07:24:08;16.40;99.90
4509;DHT22;2267;48.816;9.230;2023-04-23T07:26:35;16.40;99.90
4509;DHT22;2267;48.816;9.230;2023-04-23T07:29:03;16.50;99.90
4509;DHT22;2267;48.816;9.230;2023-04-23T07:31:32;16.60;99.90
4509;DHT22;2267;48.816;9.230;2023-04-23T07:33:59;16.60;99.90
4509;DHT22;2267;48.816;9.230;2023-04-23T07:36:27;16.60;99.90
4509;DHT22;2267;48.816;9.230;2023-04-23T07:38:54;16.70;99.90
4509;DHT22;2267;48.816;9.230;2023-04-23T07:41:20;16.60;99.90
4509;DHT22;2267;48.816;9.230;2023-04-23T07:43:47;16.60;99.90
4509;DHT22;2267;48.816;9.230;2023-04-23T07:46:14;16.50;99.90
4509;DHT22;2267;48.816;9.230;2023-04-23T07:48:41;16.50;99.90
4509;DHT22;2267;48.816;9.230;2023-04-23T07:51:08;16.50;99.90
4509;DHT22;2267;48.816;9.230;2023-04-23T07:53:35;16.50;99.90
4509;DHT22;2267;48.816;9.230;2023-04-23T07:56:02;16.50;99.90
4509;DHT22;2267;48.816;9.230;2023-04-23T07:58:28;16.50;99.90
4509;DHT22;2267;48.816;9.230;2023-04-23T08:00:55;16.60;99.90
4509;DHT22;2267;48.816;9.230;2023-04-23T08:03:22;16.60;99.90
4509;DHT22;2267;48.816;9.230;2023-04-23T08:05:50;16.60;99.90
4509;DHT22;2267;48.816;9.230;2023-04-23T08:08:16;16.60;99.90
4509;DHT22;2267;48.816;9.230;2023-04-23T08:10:44;16.60;99.90
4509;DHT22;2267;48.816;9.230;2023-04-23T08:13:11;16.70;99.90
4509;DHT22;2267;48.816;9.230;2023-04-23T08:15:38;16.70;99.90
4509;DHT22;2267;48.816;9.230;2023-04-23T08:18:05;16.70;99.90
4509;DHT22;2267;48.816;9.230;2023-04-23T08:20:32;16.70;99.90
4509;DHT22;2267;48.816;9.230;2023-04-23T08:22:59;16.70;99.90
4509;DHT22;2267;48.816;9.230;2023-04-23T08:25:26;16.70;99.90
4509;DHT22;2267;48.816;9.230;2023-04-23T08:27:53;16.70;99.90
4509;DHT22;2267;48.816;9.230;2023-04-23T08:30:20;16.80;99.90
4509;DHT22;2267;48.816;9.230;2023-04-23T08:32:49;16.80;99.90
4509;DHT22;2267;48.816;9.230;2023-04-23T08:35:17;16.90;99.90
4509;DHT22;2267;48.816;9.230;2023-04-23T08:37:44;16.90;99.90
4509;DHT22;2267;48.816;9.230;2023-04-23T08:40:11;17.00;99.90
4509;DHT22;2267;48.816;9.230;2023-04-23T08:42:48;17.00;99.90
4509;DHT22;2267;48.816;9.230;2023-04-23T08:45:15;17.00;99.90
4509;DHT22;2267;48.816;9.230;2023-04-23T08:47:42;17.10;99.90
4509;DHT22;2267;48.816;9.230;2023-04-23T08:50:11;17.10;99.90
4509;DHT22;2267;48.816;9.230;2023-04-23T08:52:40;17.20;99.90
4509;DHT22;2267;48.816;9.230;2023-04-23T08:55:10;17.20;99.90
4509;DHT22;2267;48.816;9.230;2023-04-23T08:57:38;17.30;99.90
4509;DHT22;2267;48.816;9.230;2023-04-23T09:00:08;17.30;99.90
4509;DHT22;2267;48.816;9.230;2023-04-23T09:02:39;17.40;99.90
4509;DHT22;2267;48.816;9.230;2023-04-23T09:05:07;17.40;99.90
4509;DHT22;2267;48.816;9.230;2023-04-23T09:07:35;17.50;99.90
4509;DHT22;2267;48.816;9.230;2023-04-23T09:10:03;17.50;99.90
4509;DHT22;2267;48.816;9.230;2023-04-23T09:12:36;17.60;99.90
4509;DHT22;2267;48.816;9.230;2023-04-23T09:15:03;17.60;99.90
4509;DHT22;2267;48.816;9.230;2023-04-23T09:17:44;17.60;99.90
4509;DHT22;2267;48.816;9.230;2023-04-23T09:20:12;17.70;99.90
4509;DHT22;2267;48.816;9.230;2023-04-23T09:22:44;17.70;99.90
4509;DHT22;2267;48.816;9.230;2023-04-23T09:25:15;17.80;99.70
4509;DHT22;2267;48.816;9.230;2023-04-23T09:27:43;17.80;99.40
4509;DHT22;2267;48.816;9.230;2023-04-23T09:30:11;17.80;99.40
4509;DHT22;2267;48.816;9.230;2023-04-23T09:32:39;17.90;99.30
4509;DHT22;2267;48.816;9.230;2023-04-23T09:35:09;17.90;98.80
4509;DHT22;2267;48.816;9.230;2023-04-23T09:37:41;17.90;98.60
4509;DHT22;2267;48.816;9.230;2023-04-23T09:40:08;17.80;98.00
4509;DHT22;2267;48.816;9.230;2023-04-23T09:42:38;17.80;97.50
4509;DHT22;2267;48.816;9.230;2023-04-23T09:45:10;17.80;97.10
4509;DHT22;2267;48.816;9.230;2023-04-23T09:47:38;17.80;96.80
4509;DHT22;2267;48.816;9.230;2023-04-23T09:50:06;17.90;97.30
4509;DHT22;2267;48.816;9.230;2023-04-23T09:52:39;17.90;97.60
4509;DHT22;2267;48.816;9.230;2023-04-23T09:55:07;18.00;97.80
4509;DHT22;2267;48.816;9.230;2023-04-23T09:57:40;18.00;97.20
4509;DHT22;2267;48.816;9.230;2023-04-23T10:00:18;18.00;96.70
4509;DHT22;2267;48.816;9.230;2023-04-23T10:02:49;18.10;96.50
4509;DHT22;2267;48.816;9.230;2023-04-23T10:05:20;18.20;96.80
4509;DHT22;2267;48.816;9.230;2023-04-23T10:07:54;18.20;96.50
4509;DHT22;2267;48.816;9.230;2023-04-23T10:10:23;18.20;95.70
4509;DHT22;2267;48.816;9.230;2023-04-23T10:12:52;18.20;95.30
4509;DHT22;2267;48.816;9.230;2023-04-23T10:15:25;18.30;95.30
4509;DHT22;2267;48.816;9.230;2023-04-23T10:17:53;18.30;95.30
4509;DHT22;2267;48.816;9.230;2023-04-23T10:20:24;18.30;95.40
4509;DHT22;2267;48.816;9.230;2023-04-23T10:22:55;18.30;95.30
4509;DHT22;2267;48.816;9.230;2023-04-23T10:25:23;18.30;94.90
4509;DHT22;2267;48.816;9.230;2023-04-23T10:27:51;18.30;95.10
4509;DHT22;2267;48.816;9.230;2023-04-23T10:30:21;18.30;95.50
4509;DHT22;2267;48.816;9.230;2023-04-23T10:32:50;18.30;95.50
4509;DHT22;2267;48.816;9.230;2023-04-23T10:35:18;18.30;95.10
4509;DHT22;2267;48.816;9.230;2023-04-23T10:37:45;18.30;95.20
4509;DHT22;2267;48.816;9.230;2023-04-23T10:40:18;18.40;94.80
4509;DHT22;2267;48.816;9.230;2023-04-23T10:42:48;18.40;94.30
4509;DHT22;2267;48.816;9.230;2023-04-23T10:45:17;18.40;94.00
4509;DHT22;2267;48.816;9.230;2023-04-23T10:47:47;18.40;93.60
4509;DHT22;2267;48.816;9.230;2023-04-23T10:52:45;18.40;94.30
4509;DHT22;2267;48.816;9.230;2023-04-23T10:55:22;18.40;94.40
4509;DHT22;2267;48.816;9.230;2023-04-23T11:03:36;18.50;93.40
4509;DHT22;2267;48.816;9.230;2023-04-23T11:06:18;18.50;93.20
4509;DHT22;2267;48.816;9.230;2023-04-23T11:08:52;18.50;93.00
4509;DHT22;2267;48.816;9.230;2023-04-23T11:11:37;18.50;93.00
4509;DHT22;2267;48.816;9.230;2023-04-23T11:14:12;18.60;93.30
4509;DHT22;2267;48.816;9.230;2023-04-23T11:16:41;18.50;92.80
4509;DHT22;2267;48.816;9.230;2023-04-23T11:19:10;18.50;92.60
4509;DHT22;2267;48.816;9.230;2023-04-23T11:22:27;18.60;93.10
4509;DHT22;2267;48.816;9.230;2023-04-23T11:24:47;18.60;92.90
4509;DHT22;2267;48.816;9.230;2023-04-23T11:27:17;18.60;92.30
4509;DHT22;2267;48.816;9.230;2023-04-23T11:29:45;18.70;92.30
4509;DHT22;2267;48.816;9.230;2023-04-23T11:32:15;18.90;92.60
4509;DHT22;2267;48.816;9.230;2023-04-23T11:34:44;19.00;92.50
4509;DHT22;2267;48.816;9.230;2023-04-23T11:37:15;19.10;91.80
4509;DHT22;2267;48.816;9.230;2023-04-23T11:39:44;19.30;91.90
4509;DHT22;2267;48.816;9.230;2023-04-23T11:42:13;19.40;91.50
4509;DHT22;2267;48.816;9.230;2023-04-23T11:44:41;19.40;88.40
4509;DHT22;2267;48.816;9.230;2023-04-23T11:47:09;19.30;88.70
4509;DHT22;2267;48.816;9.230;2023-04-23T11:49:37;19.50;89.70
4509;DHT22;2267;48.816;9.230;2023-04-23T11:52:04;19.60;90.40
4509;DHT22;2267;48.816;9.230;2023-04-23T11:54:31;19.80;90.20
4509;DHT22;2267;48.816;9.230;2023-04-23T11:57:00;19.90;90.10
4509;DHT22;2267;48.816;9.230;2023-04-23T11:59:28;20.00;90.30
4509;DHT22;2267;48.816;9.230;2023-04-23T12:01:58;20.10;90.00
4509;DHT22;2267;48.816;9.230;2023-04-23T12:04:29;20.10;89.50
4509;DHT22;2267;48.816;9.230;2023-04-23T12:06:57;20.10;89.10
4509;DHT22;2267;48.816;9.230;2023-04-23T12:09:28;20.20;87.50
4509;DHT22;2267;48.816;9.230;2023-04-23T12:11:56;20.20;87.50
4509;DHT22;2267;48.816;9.230;2023-04-23T12:14:28;20.30;87.90
4509;DHT22;2267;48.816;9.230;2023-04-23T12:16:57;20.50;87.80
4509;DHT22;2267;48.816;9.230;2023-04-23T12:19:28;20.60;88.40
4509;DHT22;2267;48.816;9.230;2023-04-23T12:24:28;20.70;86.60
4509;DHT22;2267;48.816;9.230;2023-04-23T12:26:57;20.70;86.20
4509;DHT22;2267;48.816;9.230;2023-04-23T12:29:28;20.60;86.80
4509;DHT22;2267;48.816;9.230;2023-04-23T12:31:58;20.50;85.80
4509;DHT22;2267;48.816;9.230;2023-04-23T12:34:25;20.40;86.30
4509;DHT22;2267;48.816;9.230;2023-04-23T12:36:54;20.30;85.80
4509;DHT22;2267;48.816;9.230;2023-04-23T12:39:32;20.20;85.50
4509;DHT22;2267;48.816;9.230;2023-04-23T12:44:28;20.20;86.20
4509;DHT22;2267;48.816;9.230;2023-04-23T12:47:01;20.30;85.80
4509;DHT22;2267;48.816;9.230;2023-04-23T12:49:29;20.60;87.00
4509;DHT22;2267;48.816;9.230;2023-04-23T12:51:58;20.90;85.60
4509;DHT22;2267;48.816;9.230;2023-04-23T12:54:33;21.20;85.20
4509;DHT22;2267;48.816;9.230;2023-04-23T12:57:04;21.50;84.50
4509;DHT22;2267;48.816;9.230;2023-04-23T12:59:31;21.60;83.40
4509;DHT22;2267;48.816;9.230;2023-04-23T13:01:59;21.90;82.60
4509;DHT22;2267;48.816;9.230;2023-04-23T13:04:30;22.00;81.60
4509;DHT22;2267;48.816;9.230;2023-04-23T13:06:57;22.20;80.30
4509;DHT22;2267;48.816;9.230;2023-04-23T13:09:24;22.20;78.60
4509;DHT22;2267;48.816;9.230;2023-04-23T13:11:54;22.10;79.20
4509;DHT22;2267;48.816;9.230;2023-04-23T13:14:21;22.00;80.20
4509;DHT22;2267;48.816;9.230;2023-04-23T13:16:49;22.10;81.30
4509;DHT22;2267;48.816;9.230;2023-04-23T13:19:16;22.10;78.70
4509;DHT22;2267;48.816;9.230;2023-04-23T13:21:43;21.90;78.50
4509;DHT22;2267;48.816;9.230;2023-04-23T13:24:10;21.70;79.20
4509;DHT22;2267;48.816;9.230;2023-04-23T13:26:37;21.60;80.60
4509;DHT22;2267;48.816;9.230;2023-04-23T13:29:05;21.40;79.50
4509;DHT22;2267;48.816;9.230;2023-04-23T13:31:32;21.30;79.70
4509;DHT22;2267;48.816;9.230;2023-04-23T13:33:59;21.20;79.40
4509;DHT22;2267;48.816;9.230;2023-04-23T13:36:27;21.50;80.70
4509;DHT22;2267;48.816;9.230;2023-04-23T13:38:53;21.70;80.70
4509;DHT22;2267;48.816;9.230;2023-04-23T13:41:20;21.90;79.50
4509;DHT22;2267;48.816;9.230;2023-04-23T13:43:47;22.00;77.40
4509;DHT22;2267;48.816;9.230;2023-04-23T13:46:14;22.00;76.50
4509;DHT22;2267;48.816;9.230;2023-04-23T13:48:42;22.10;77.30
4509;DHT22;2267;48.816;9.230;2023-04-23T13:51:09;22.20;75.20
4509;DHT22;2267;48.816;9.230;2023-04-23T13:53:52;22.20;71.80
4509;DHT22;2267;48.816;9.230;2023-04-23T13:56:19;22.20;72.30
4509;DHT22;2267;48.816;9.230;2023-04-23T13:58:46;22.30;73.00
4509;DHT22;2267;48.816;9.230;2023-04-23T14:01:14;22.30;70.80
4509;DHT22;2267;48.816;9.230;2023-04-23T14:03:41;22.50;70.40
4509;DHT22;2267;48.816;9.230;2023-04-23T14:06:08;22.60;71.30
4509;DHT22;2267;48.816;9.230;2023-04-23T14:08:35;22.70;70.10
4509;DHT22;2267;48.816;9.230;2023-04-23T14:11:03;22.90;67.30
4509;DHT22;2267;48.816;9.230;2023-04-23T14:13:30;23.00;66.60
4509;DHT22;2267;48.816;9.230;2023-04-23T14:15:57;23.10;67.40
4509;DHT22;2267;48.816;9.230;2023-04-23T14:18:28;23.20;66.70
4509;DHT22;2267;48.816;9.230;2023-04-23T14:20:55;23.20;65.50
4509;DHT22;2267;48.816;9.230;2023-04-23T14:26:02;23.20;65.10
4509;DHT22;2267;48.816;9.230;2023-04-23T14:28:37;23.00;64.50
4509;DHT22;2267;48.816;9.230;2023-04-23T14:31:05;22.80;63.10
4509;DHT22;2267;48.816;9.230;2023-04-23T14:33:32;22.70;63.10
4509;DHT22;2267;48.816;9.230;2023-04-23T14:35:59;22.70;63.70
4509;DHT22;2267;48.816;9.230;2023-04-23T14:38:26;22.80;62.50
4509;DHT22;2267;48.816;9.230;2023-04-23T14:40:53;22.70;61.10
4509;DHT22;2267;48.816;9.230;2023-04-23T14:43:20;22.70;59.70
4509;DHT22;2267;48.816;9.230;2023-04-23T14:45:47;22.50;60.50
4509;DHT22;2267;48.816;9.230;2023-04-23T14:48:14;22.40;60.40
4509;DHT22;2267;48.816;9.230;2023-04-23T14:50:41;22.20;59.40
4509;DHT22;2267;48.816;9.230;2023-04-23T14:53:07;22.10;60.00
4509;DHT22;2267;48.816;9.230;2023-04-23T14:55:36;22.00;60.90
4509;DHT22;2267;48.816;9.230;2023-04-23T14:58:04;21.90;61.10
4509;DHT22;2267;48.816;9.230;2023-04-23T15:00:32;21.80;61.10
4509;DHT22;2267;48.816;9.230;2023-04-23T15:03:00;21.70;61.40
4509;DHT22;2267;48.816;9.230;2023-04-23T15:05:28;21.70;62.00
4509;DHT22;2267;48.816;9.230;2023-04-23T15:07:55;21.60;62.10
4509;DHT22;2267;48.816;9.230;2023-04-23T15:10:22;21.50;62.50
4509;DHT22;2267;48.816;9.230;2023-04-23T15:18:03;21.40;63.30
4509;DHT22;2267;48.816;9.230;2023-04-23T15:20:31;21.30;66.40
4509;DHT22;2267;48.816;9.230;2023-04-23T15:22:57;21.20;70.60
4509;DHT22;2267;48.816;9.230;2023-04-23T15:25:24;21.10;73.20
4509;DHT22;2267;48.816;9.230;2023-04-23T15:27:51;21.00;74.60
4509;DHT22;2267;48.816;9.230;2023-04-23T15:30:24;21.00;76.40
4509;DHT22;2267;48.816;9.230;2023-04-23T15:32:52;21.00;79.40
4509;DHT22;2267;48.816;9.230;2023-04-23T15:35:24;21.00;79.70
4509;DHT22;2267;48.816;9.230;2023-04-23T15:37:52;21.00;79.90
4509;DHT22;2267;48.816;9.230;2023-04-23T15:40:19;21.00;80.50
4509;DHT22;2267;48.816;9.230;2023-04-23T15:42:46;20.90;79.80
4509;DHT22;2267;48.816;9.230;2023-04-23T15:45:15;20.90;79.70
4509;DHT22;2267;48.816;9.230;2023-04-23T15:47:42;20.90;78.30
4509;DHT22;2267;48.816;9.230;2023-04-23T15:50:10;20.70;77.50
4509;DHT22;2267;48.816;9.230;2023-04-23T15:52:37;20.60;81.50
4509;DHT22;2267;48.816;9.230;2023-04-23T15:55:05;20.40;85.70
4509;DHT22;2267;48.816;9.230;2023-04-23T15:57:32;20.20;86.60
4509;DHT22;2267;48.816;9.230;2023-04-23T15:59:59;20.10;88.30
4509;DHT22;2267;48.816;9.230;2023-04-23T16:02:26;20.00;90.30
4509;DHT22;2267;48.816;9.230;2023-04-23T16:04:54;19.90;91.10
4509;DHT22;2267;48.816;9.230;2023-04-23T16:07:21;19.90;93.30
4509;DHT22;2267;48.816;9.230;2023-04-23T16:09:48;19.80;93.90
4509;DHT22;2267;48.816;9.230;2023-04-23T16:12:15;19.80;95.90
4509;DHT22;2267;48.816;9.230;2023-04-23T16:14:42;19.70;97.60
4509;DHT22;2267;48.816;9.230;2023-04-23T16:17:09;19.70;98.60
4509;DHT22;2267;48.816;9.230;2023-04-23T16:19:36;19.70;99.20
4509;DHT22;2267;48.816;9.230;2023-04-23T16:22:03;19.60;99.20
4509;DHT22;2267;48.816;9.230;2023-04-23T16:24:30;19.60;99.80
4509;DHT22;2267;48.816;9.230;2023-04-23T16:26:57;19.60;99.00
4509;DHT22;2267;48.816;9.230;2023-04-23T16:29:24;19.50;99.10